KROW

Roswell International Air Center Airport

Roswell, New Mexico, USA
METAR KROW 191351Z 34005KT 10SM CLR 08/M04 A2989 RMK AO2 SLP097 T00781039
Observed Flight Rules
Dec-19 @ 13:51 UTC (48 minutes ago) Visual Flight Rules
Wind Visibility Clouds
340° at 5 knots 10 miles
  • Clear skies
Temperatures Readings
Current 8°C / 46°F
Dewpoint -4°C / 25°F
Humidity 43%
Altimeter 29.89" Hg
Pressure 1009.7 hPa
Elevation 1112
METAR KROW 191351Z 34005KT 10SM CLR 08/M04 A2989 RMK AO2 SLP097 T00781039
Observed Flight Rules
Dec-19 @ 13:51 UTC
(48 minutes ago)
VFR
Wind Visibility
340° at 5 knots 10 miles
Clouds
  • Clear skies
Temperature Dewpoint
8°C / 46°F -4°C / 25°F
Humidity Altimeter Pressure
43% 29.89" Hg 1009.7 hPa